sensor_id;sensor_type;location;lat;lon;timestamp;P1;durP1;ratioP1;P2;durP2;ratioP2
27728;SDS011;15126;42.186;24.340;2022-09-23T00:01:49;6.97;;;6.37;;
27728;SDS011;15126;42.186;24.340;2022-09-23T00:04:16;6.33;;;5.80;;
27728;SDS011;15126;42.186;24.340;2022-09-23T00:06:44;6.33;;;5.83;;
27728;SDS011;15126;42.186;24.340;2022-09-23T00:09:11;6.17;;;5.67;;
27728;SDS011;15126;42.186;24.340;2022-09-23T00:11:38;6.87;;;6.27;;
27728;SDS011;15126;42.186;24.340;2022-09-23T00:14:04;6.83;;;6.23;;
27728;SDS011;15126;42.186;24.340;2022-09-23T00:16:32;7.10;;;6.40;;
27728;SDS011;15126;42.186;24.340;2022-09-23T00:19:00;7.03;;;6.30;;
27728;SDS011;15126;42.186;24.340;2022-09-23T00:21:29;6.03;;;5.53;;
27728;SDS011;15126;42.186;24.340;2022-09-23T00:23:57;6.80;;;6.30;;
27728;SDS011;15126;42.186;24.340;2022-09-23T00:26:24;6.63;;;6.00;;
27728;SDS011;15126;42.186;24.340;2022-09-23T00:28:51;6.97;;;6.43;;
27728;SDS011;15126;42.186;24.340;2022-09-23T00:31:19;6.60;;;6.10;;
27728;SDS011;15126;42.186;24.340;2022-09-23T00:33:51;7.83;;;7.03;;
27728;SDS011;15126;42.186;24.340;2022-09-23T00:36:18;7.40;;;6.53;;
27728;SDS011;15126;42.186;24.340;2022-09-23T00:38:45;7.10;;;6.40;;
27728;SDS011;15126;42.186;24.340;2022-09-23T00:41:13;7.30;;;6.70;;
27728;SDS011;15126;42.186;24.340;2022-09-23T00:43:42;8.53;;;6.37;;
27728;SDS011;15126;42.186;24.340;2022-09-23T00:46:11;7.03;;;6.43;;
27728;SDS011;15126;42.186;24.340;2022-09-23T00:48:40;7.67;;;7.07;;
27728;SDS011;15126;42.186;24.340;2022-09-23T00:51:10;16.43;;;6.93;;
27728;SDS011;15126;42.186;24.340;2022-09-23T00:53:42;6.67;;;6.13;;
27728;SDS011;15126;42.186;24.340;2022-09-23T00:56:09;10.77;;;6.73;;
27728;SDS011;15126;42.186;24.340;2022-09-23T00:58:41;8.83;;;6.77;;
27728;SDS011;15126;42.186;24.340;2022-09-23T01:01:09;6.60;;;6.10;;
27728;SDS011;15126;42.186;24.340;2022-09-23T01:03:37;7.00;;;6.40;;
27728;SDS011;15126;42.186;24.340;2022-09-23T01:06:05;6.80;;;6.30;;
27728;SDS011;15126;42.186;24.340;2022-09-23T01:08:33;6.20;;;5.70;;
27728;SDS011;15126;42.186;24.340;2022-09-23T01:11:02;7.40;;;6.70;;
27728;SDS011;15126;42.186;24.340;2022-09-23T01:13:42;7.63;;;7.03;;
27728;SDS011;15126;42.186;24.340;2022-09-23T01:16:17;8.10;;;7.40;;
27728;SDS011;15126;42.186;24.340;2022-09-23T01:18:52;6.90;;;6.30;;
27728;SDS011;15126;42.186;24.340;2022-09-23T01:21:35;6.73;;;6.13;;
27728;SDS011;15126;42.186;24.340;2022-09-23T01:24:23;7.47;;;6.87;;
27728;SDS011;15126;42.186;24.340;2022-09-23T01:30:15;7.10;;;6.47;;
27728;SDS011;15126;42.186;24.340;2022-09-23T01:32:57;7.40;;;6.70;;
27728;SDS011;15126;42.186;24.340;2022-09-23T01:35:38;7.13;;;6.53;;
27728;SDS011;15126;42.186;24.340;2022-09-23T01:38:28;6.90;;;6.27;;
27728;SDS011;15126;42.186;24.340;2022-09-23T01:41:03;9.17;;;6.73;;
27728;SDS011;15126;42.186;24.340;2022-09-23T01:43:39;6.83;;;6.20;;
27728;SDS011;15126;42.186;24.340;2022-09-23T01:46:15;7.13;;;6.43;;
27728;SDS011;15126;42.186;24.340;2022-09-23T01:48:48;6.53;;;6.03;;
27728;SDS011;15126;42.186;24.340;2022-09-23T01:51:19;7.43;;;6.27;;
27728;SDS011;15126;42.186;24.340;2022-09-23T01:53:52;7.23;;;6.50;;
27728;SDS011;15126;42.186;24.340;2022-09-23T01:56:29;7.30;;;6.70;;
27728;SDS011;15126;42.186;24.340;2022-09-23T01:59:01;6.33;;;5.93;;
27728;SDS011;15126;42.186;24.340;2022-09-23T02:01:38;6.67;;;6.17;;
27728;SDS011;15126;42.186;24.340;2022-09-23T02:04:11;8.10;;;7.47;;
27728;SDS011;15126;42.186;24.340;2022-09-23T02:06:47;7.87;;;7.07;;
27728;SDS011;15126;42.186;24.340;2022-09-23T02:09:20;7.40;;;6.90;;
27728;SDS011;15126;42.186;24.340;2022-09-23T02:11:50;7.50;;;6.90;;
27728;SDS011;15126;42.186;24.340;2022-09-23T02:14:21;6.97;;;6.43;;
27728;SDS011;15126;42.186;24.340;2022-09-23T02:16:54;7.23;;;6.53;;
27728;SDS011;15126;42.186;24.340;2022-09-23T02:19:28;7.87;;;7.20;;
27728;SDS011;15126;42.186;24.340;2022-09-23T02:22:02;8.00;;;7.30;;
27728;SDS011;15126;42.186;24.340;2022-09-23T02:24:33;7.67;;;7.07;;
27728;SDS011;15126;42.186;24.340;2022-09-23T02:27:05;7.20;;;6.60;;
27728;SDS011;15126;42.186;24.340;2022-09-23T02:29:45;9.80;;;7.47;;
27728;SDS011;15126;42.186;24.340;2022-09-23T02:32:18;7.33;;;6.80;;
27728;SDS011;15126;42.186;24.340;2022-09-23T02:34:52;8.13;;;6.80;;
27728;SDS011;15126;42.186;24.340;2022-09-23T02:37:26;7.80;;;7.10;;
27728;SDS011;15126;42.186;24.340;2022-09-23T02:39:59;9.33;;;8.53;;
27728;SDS011;15126;42.186;24.340;2022-09-23T02:42:36;8.17;;;7.57;;
27728;SDS011;15126;42.186;24.340;2022-09-23T02:45:09;8.10;;;7.50;;
27728;SDS011;15126;42.186;24.340;2022-09-23T02:47:36;7.87;;;7.27;;
27728;SDS011;15126;42.186;24.340;2022-09-23T02:50:09;7.83;;;7.03;;
27728;SDS011;15126;42.186;24.340;2022-09-23T02:52:36;8.90;;;7.80;;
27728;SDS011;15126;42.186;24.340;2022-09-23T02:55:03;8.80;;;7.47;;
27728;SDS011;15126;42.186;24.340;2022-09-23T02:57:31;7.83;;;7.17;;
27728;SDS011;15126;42.186;24.340;2022-09-23T02:59:58;7.70;;;7.20;;
27728;SDS011;15126;42.186;24.340;2022-09-23T03:02:29;8.43;;;7.70;;
27728;SDS011;15126;42.186;24.340;2022-09-23T03:05:17;8.07;;;7.17;;
27728;SDS011;15126;42.186;24.340;2022-09-23T03:07:52;7.97;;;7.33;;
27728;SDS011;15126;42.186;24.340;2022-09-23T03:10:41;8.37;;;7.60;;
27728;SDS011;15126;42.186;24.340;2022-09-23T03:13:18;10.67;;;9.73;;
27728;SDS011;15126;42.186;24.340;2022-09-23T03:15:55;11.00;;;9.90;;
27728;SDS011;15126;42.186;24.340;2022-09-23T03:18:29;10.80;;;9.90;;
27728;SDS011;15126;42.186;24.340;2022-09-23T03:21:02;11.03;;;10.03;;
27728;SDS011;15126;42.186;24.340;2022-09-23T03:23:34;14.37;;;13.07;;
27728;SDS011;15126;42.186;24.340;2022-09-23T03:26:05;15.23;;;13.90;;
27728;SDS011;15126;42.186;24.340;2022-09-23T03:28:38;16.13;;;14.70;;
27728;SDS011;15126;42.186;24.340;2022-09-23T03:31:08;15.97;;;14.60;;
27728;SDS011;15126;42.186;24.340;2022-09-23T03:33:37;14.63;;;13.27;;
27728;SDS011;15126;42.186;24.340;2022-09-23T03:36:09;11.40;;;10.50;;
27728;SDS011;15126;42.186;24.340;2022-09-23T03:38:58;9.73;;;8.87;;
27728;SDS011;15126;42.186;24.340;2022-09-23T03:41:30;8.27;;;7.57;;
27728;SDS011;15126;42.186;24.340;2022-09-23T03:44:02;8.47;;;7.77;;
27728;SDS011;15126;42.186;24.340;2022-09-23T03:46:31;11.03;;;9.00;;
27728;SDS011;15126;42.186;24.340;2022-09-23T03:49:01;9.00;;;8.13;;
27728;SDS011;15126;42.186;24.340;2022-09-23T03:51:35;9.67;;;8.77;;
27728;SDS011;15126;42.186;24.340;2022-09-23T03:54:02;9.47;;;8.67;;
27728;SDS011;15126;42.186;24.340;2022-09-23T03:56:29;11.90;;;9.47;;
27728;SDS011;15126;42.186;24.340;2022-09-23T03:58:55;9.43;;;8.50;;
27728;SDS011;15126;42.186;24.340;2022-09-23T04:01:22;7.67;;;7.00;;
27728;SDS011;15126;42.186;24.340;2022-09-23T04:03:50;8.53;;;7.83;;
27728;SDS011;15126;42.186;24.340;2022-09-23T04:06:18;7.70;;;7.00;;
27728;SDS011;15126;42.186;24.340;2022-09-23T04:08:46;7.87;;;7.27;;
27728;SDS011;15126;42.186;24.340;2022-09-23T04:11:15;8.83;;;8.10;;
27728;SDS011;15126;42.186;24.340;2022-09-23T04:13:42;8.13;;;7.43;;
27728;SDS011;15126;42.186;24.340;2022-09-23T04:16:09;9.23;;;8.43;;
27728;SDS011;15126;42.186;24.340;2022-09-23T04:18:36;9.63;;;8.83;;
27728;SDS011;15126;42.186;24.340;2022-09-23T04:21:03;12.77;;;8.40;;
27728;SDS011;15126;42.186;24.340;2022-09-23T04:23:30;9.13;;;8.20;;
27728;SDS011;15126;42.186;24.340;2022-09-23T04:25:58;8.77;;;8.07;;
27728;SDS011;15126;42.186;24.340;2022-09-23T04:28:25;8.70;;;7.70;;
27728;SDS011;15126;42.186;24.340;2022-09-23T04:30:52;9.10;;;8.40;;
27728;SDS011;15126;42.186;24.340;2022-09-23T04:33:22;9.60;;;8.70;;
27728;SDS011;15126;42.186;24.340;2022-09-23T04:35:49;9.83;;;7.97;;
27728;SDS011;15126;42.186;24.340;2022-09-23T04:38:17;9.00;;;8.10;;
27728;SDS011;15126;42.186;24.340;2022-09-23T04:40:44;10.30;;;8.40;;
27728;SDS011;15126;42.186;24.340;2022-09-23T04:43:12;11.37;;;8.83;;
27728;SDS011;15126;42.186;24.340;2022-09-23T04:45:40;11.23;;;8.63;;
27728;SDS011;15126;42.186;24.340;2022-09-23T04:48:07;8.57;;;7.70;;
27728;SDS011;15126;42.186;24.340;2022-09-23T04:50:34;10.20;;;9.23;;
27728;SDS011;15126;42.186;24.340;2022-09-23T04:53:02;9.70;;;8.70;;
27728;SDS011;15126;42.186;24.340;2022-09-23T04:55:29;8.77;;;7.97;;
27728;SDS011;15126;42.186;24.340;2022-09-23T04:57:57;9.33;;;8.53;;
27728;SDS011;15126;42.186;24.340;2022-09-23T05:00:25;10.30;;;9.40;;
27728;SDS011;15126;42.186;24.340;2022-09-23T05:02:52;10.70;;;9.63;;
27728;SDS011;15126;42.186;24.340;2022-09-23T05:05:19;9.40;;;8.70;;
27728;SDS011;15126;42.186;24.340;2022-09-23T05:07:47;9.57;;;8.57;;
27728;SDS011;15126;42.186;24.340;2022-09-23T05:10:15;9.33;;;8.13;;
27728;SDS011;15126;42.186;24.340;2022-09-23T05:12:43;12.37;;;9.50;;
27728;SDS011;15126;42.186;24.340;2022-09-23T05:15:09;9.73;;;8.93;;
27728;SDS011;15126;42.186;24.340;2022-09-23T05:17:41;9.07;;;8.27;;
27728;SDS011;15126;42.186;24.340;2022-09-23T05:20:08;9.80;;;8.90;;
27728;SDS011;15126;42.186;24.340;2022-09-23T05:22:37;9.63;;;8.93;;
27728;SDS011;15126;42.186;24.340;2022-09-23T05:25:04;8.53;;;7.83;;
27728;SDS011;15126;42.186;24.340;2022-09-23T05:27:31;12.40;;;9.67;;
27728;SDS011;15126;42.186;24.340;2022-09-23T05:29:58;10.53;;;8.43;;
27728;SDS011;15126;42.186;24.340;2022-09-23T05:32:25;10.00;;;8.77;;
27728;SDS011;15126;42.186;24.340;2022-09-23T05:34:53;8.70;;;7.87;;
27728;SDS011;15126;42.186;24.340;2022-09-23T05:37:20;8.90;;;8.07;;
27728;SDS011;15126;42.186;24.340;2022-09-23T05:39:47;9.03;;;8.23;;
27728;SDS011;15126;42.186;24.340;2022-09-23T05:42:14;9.43;;;8.27;;
27728;SDS011;15126;42.186;24.340;2022-09-23T05:44:42;8.93;;;8.23;;
27728;SDS011;15126;42.186;24.340;2022-09-23T05:47:11;9.07;;;8.37;;
27728;SDS011;15126;42.186;24.340;2022-09-23T05:49:38;11.50;;;8.33;;
27728;SDS011;15126;42.186;24.340;2022-09-23T05:52:06;9.90;;;8.93;;
27728;SDS011;15126;42.186;24.340;2022-09-23T05:54:33;8.03;;;7.23;;
27728;SDS011;15126;42.186;24.340;2022-09-23T05:57:00;8.87;;;7.83;;
27728;SDS011;15126;42.186;24.340;2022-09-23T05:59:27;9.23;;;7.80;;
27728;SDS011;15126;42.186;24.340;2022-09-23T06:01:54;9.50;;;6.73;;
27728;SDS011;15126;42.186;24.340;2022-09-23T06:04:21;8.50;;;7.70;;
27728;SDS011;15126;42.186;24.340;2022-09-23T06:06:47;7.03;;;6.37;;
27728;SDS011;15126;42.186;24.340;2022-09-23T06:09:16;10.50;;;7.00;;
27728;SDS011;15126;42.186;24.340;2022-09-23T06:11:42;7.17;;;6.47;;
27728;SDS011;15126;42.186;24.340;2022-09-23T06:14:11;7.53;;;6.93;;
27728;SDS011;15126;42.186;24.340;2022-09-23T06:16:39;6.67;;;6.07;;
27728;SDS011;15126;42.186;24.340;2022-09-23T06:19:07;12.00;;;6.80;;
27728;SDS011;15126;42.186;24.340;2022-09-23T06:21:35;6.53;;;6.03;;
27728;SDS011;15126;42.186;24.340;2022-09-23T06:24:04;7.10;;;6.33;;
27728;SDS011;15126;42.186;24.340;2022-09-23T06:26:34;8.40;;;6.40;;
27728;SDS011;15126;42.186;24.340;2022-09-23T06:29:02;8.50;;;6.53;;
27728;SDS011;15126;42.186;24.340;2022-09-23T06:31:30;11.60;;;6.50;;
27728;SDS011;15126;42.186;24.340;2022-09-23T06:33:58;7.80;;;6.50;;
27728;SDS011;15126;42.186;24.340;2022-09-23T06:36:24;7.57;;;5.53;;
27728;SDS011;15126;42.186;24.340;2022-09-23T06:38:51;6.53;;;5.80;;
27728;SDS011;15126;42.186;24.340;2022-09-23T06:41:18;6.27;;;5.77;;
27728;SDS011;15126;42.186;24.340;2022-09-23T06:43:47;7.53;;;5.33;;
27728;SDS011;15126;42.186;24.340;2022-09-23T06:46:14;5.60;;;5.10;;
27728;SDS011;15126;42.186;24.340;2022-09-23T06:48:41;5.97;;;5.37;;
27728;SDS011;15126;42.186;24.340;2022-09-23T06:51:09;5.50;;;5.10;;
27728;SDS011;15126;42.186;24.340;2022-09-23T06:53:43;5.83;;;5.23;;
27728;SDS011;15126;42.186;24.340;2022-09-23T06:56:11;6.33;;;5.60;;
27728;SDS011;15126;42.186;24.340;2022-09-23T06:58:38;6.47;;;5.80;;
27728;SDS011;15126;42.186;24.340;2022-09-23T07:01:06;6.27;;;4.80;;
27728;SDS011;15126;42.186;24.340;2022-09-23T07:03:34;6.00;;;5.00;;
27728;SDS011;15126;42.186;24.340;2022-09-23T07:06:02;5.23;;;4.73;;
27728;SDS011;15126;42.186;24.340;2022-09-23T07:08:30;5.80;;;5.33;;
27728;SDS011;15126;42.186;24.340;2022-09-23T07:10:59;5.20;;;4.90;;
27728;SDS011;15126;42.186;24.340;2022-09-23T07:13:28;6.10;;;5.60;;
27728;SDS011;15126;42.186;24.340;2022-09-23T07:15:57;5.37;;;4.97;;
27728;SDS011;15126;42.186;24.340;2022-09-23T07:18:28;6.47;;;5.90;;
27728;SDS011;15126;42.186;24.340;2022-09-23T07:21:03;5.50;;;5.10;;
27728;SDS011;15126;42.186;24.340;2022-09-23T07:23:31;5.17;;;4.77;;
27728;SDS011;15126;42.186;24.340;2022-09-23T07:25:58;5.50;;;4.87;;
27728;SDS011;15126;42.186;24.340;2022-09-23T07:28:26;4.97;;;4.40;;
27728;SDS011;15126;42.186;24.340;2022-09-23T07:30:53;5.90;;;5.40;;
27728;SDS011;15126;42.186;24.340;2022-09-23T07:33:20;5.67;;;5.27;;
27728;SDS011;15126;42.186;24.340;2022-09-23T07:35:48;5.07;;;4.67;;
27728;SDS011;15126;42.186;24.340;2022-09-23T07:38:15;4.60;;;4.30;;
27728;SDS011;15126;42.186;24.340;2022-09-23T07:40:41;5.37;;;4.90;;
27728;SDS011;15126;42.186;24.340;2022-09-23T07:43:08;5.37;;;4.97;;
27728;SDS011;15126;42.186;24.340;2022-09-23T07:45:36;5.60;;;5.17;;
27728;SDS011;15126;42.186;24.340;2022-09-23T07:48:07;5.43;;;5.03;;
27728;SDS011;15126;42.186;24.340;2022-09-23T07:50:34;5.27;;;4.77;;
27728;SDS011;15126;42.186;24.340;2022-09-23T07:53:06;6.00;;;5.40;;
27728;SDS011;15126;42.186;24.340;2022-09-23T07:55:33;5.93;;;5.47;;
27728;SDS011;15126;42.186;24.340;2022-09-23T07:58:00;5.03;;;4.63;;
27728;SDS011;15126;42.186;24.340;2022-09-23T08:00:27;5.27;;;4.87;;
27728;SDS011;15126;42.186;24.340;2022-09-23T08:02:54;4.77;;;4.33;;
27728;SDS011;15126;42.186;24.340;2022-09-23T08:05:20;5.07;;;4.57;;
27728;SDS011;15126;42.186;24.340;2022-09-23T08:07:47;5.40;;;5.00;;
27728;SDS011;15126;42.186;24.340;2022-09-23T08:10:16;6.03;;;5.43;;
27728;SDS011;15126;42.186;24.340;2022-09-23T08:12:44;5.73;;;4.80;;
27728;SDS011;15126;42.186;24.340;2022-09-23T08:15:13;5.40;;;4.90;;
27728;SDS011;15126;42.186;24.340;2022-09-23T08:17:41;6.50;;;5.47;;
27728;SDS011;15126;42.186;24.340;2022-09-23T08:20:08;6.37;;;4.47;;
27728;SDS011;15126;42.186;24.340;2022-09-23T08:22:56;5.10;;;4.70;;
27728;SDS011;15126;42.186;24.340;2022-09-23T08:25:24;5.90;;;5.30;;
27728;SDS011;15126;42.186;24.340;2022-09-23T08:27:51;5.57;;;5.17;;
27728;SDS011;15126;42.186;24.340;2022-09-23T08:30:17;5.40;;;4.90;;
27728;SDS011;15126;42.186;24.340;2022-09-23T08:32:44;4.53;;;4.23;;
27728;SDS011;15126;42.186;24.340;2022-09-23T08:35:14;5.80;;;3.50;;
27728;SDS011;15126;42.186;24.340;2022-09-23T08:37:41;7.27;;;4.00;;
27728;SDS011;15126;42.186;24.340;2022-09-23T08:40:08;4.40;;;4.00;;
27728;SDS011;15126;42.186;24.340;2022-09-23T08:42:36;3.37;;;3.17;;
27728;SDS011;15126;42.186;24.340;2022-09-23T08:45:10;4.70;;;4.40;;
27728;SDS011;15126;42.186;24.340;2022-09-23T08:47:43;4.10;;;3.80;;
27728;SDS011;15126;42.186;24.340;2022-09-23T08:50:18;3.53;;;3.27;;
27728;SDS011;15126;42.186;24.340;2022-09-23T08:52:47;3.50;;;3.30;;
27728;SDS011;15126;42.186;24.340;2022-09-23T08:55:17;3.33;;;3.13;;
27728;SDS011;15126;42.186;24.340;2022-09-23T08:57:48;3.23;;;3.03;;
27728;SDS011;15126;42.186;24.340;2022-09-23T09:00:30;2.53;;;2.33;;
27728;SDS011;15126;42.186;24.340;2022-09-23T09:03:07;5.17;;;2.67;;
27728;SDS011;15126;42.186;24.340;2022-09-23T09:05:44;3.43;;;3.17;;
27728;SDS011;15126;42.186;24.340;2022-09-23T09:08:12;3.20;;;3.00;;
27728;SDS011;15126;42.186;24.340;2022-09-23T09:10:39;3.57;;;2.80;;
27728;SDS011;15126;42.186;24.340;2022-09-23T09:13:19;2.67;;;2.47;;
27728;SDS011;15126;42.186;24.340;2022-09-23T09:15:58;2.67;;;2.47;;
27728;SDS011;15126;42.186;24.340;2022-09-23T09:18:44;2.97;;;2.70;;
27728;SDS011;15126;42.186;24.340;2022-09-23T09:21:17;3.40;;;3.03;;
27728;SDS011;15126;42.186;24.340;2022-09-23T09:23:47;4.70;;;3.00;;
27728;SDS011;15126;42.186;24.340;2022-09-23T09:26:19;3.17;;;2.93;;
27728;SDS011;15126;42.186;24.340;2022-09-23T09:28:50;3.20;;;2.90;;
27728;SDS011;15126;42.186;24.340;2022-09-23T09:31:23;2.40;;;2.17;;
27728;SDS011;15126;42.186;24.340;2022-09-23T09:33:56;2.20;;;2.10;;
27728;SDS011;15126;42.186;24.340;2022-09-23T09:36:30;2.53;;;2.33;;
27728;SDS011;15126;42.186;24.340;2022-09-23T09:39:01;2.60;;;2.33;;
27728;SDS011;15126;42.186;24.340;2022-09-23T09:41:29;2.70;;;1.73;;
27728;SDS011;15126;42.186;24.340;2022-09-23T09:43:58;2.07;;;1.97;;
27728;SDS011;15126;42.186;24.340;2022-09-23T09:46:50;1.83;;;1.70;;
27728;SDS011;15126;42.186;24.340;2022-09-23T09:49:24;2.00;;;1.90;;
27728;SDS011;15126;42.186;24.340;2022-09-23T09:54:44;3.07;;;1.67;;
27728;SDS011;15126;42.186;24.340;2022-09-23T09:57:16;2.40;;;1.70;;
27728;SDS011;15126;42.186;24.340;2022-09-23T09:59:51;1.70;;;1.60;;
27728;SDS011;15126;42.186;24.340;2022-09-23T10:02:21;2.53;;;1.60;;
27728;SDS011;15126;42.186;24.340;2022-09-23T10:04:56;7.30;;;2.23;;
27728;SDS011;15126;42.186;24.340;2022-09-23T10:07:26;1.43;;;1.33;;
27728;SDS011;15126;42.186;24.340;2022-09-23T10:09:56;1.67;;;1.20;;
27728;SDS011;15126;42.186;24.340;2022-09-23T10:12:25;2.77;;;1.50;;
27728;SDS011;15126;42.186;24.340;2022-09-23T10:14:55;2.50;;;2.10;;
27728;SDS011;15126;42.186;24.340;2022-09-23T10:17:23;1.10;;;1.10;;
27728;SDS011;15126;42.186;24.340;2022-09-23T10:19:57;3.03;;;1.90;;
27728;SDS011;15126;42.186;24.340;2022-09-23T10:22:26;2.00;;;1.90;;
27728;SDS011;15126;42.186;24.340;2022-09-23T10:24:59;2.40;;;1.80;;
27728;SDS011;15126;42.186;24.340;2022-09-23T10:27:30;1.47;;;1.37;;
27728;SDS011;15126;42.186;24.340;2022-09-23T10:30:00;1.77;;;1.67;;
27728;SDS011;15126;42.186;24.340;2022-09-23T10:32:31;2.00;;;1.90;;
27728;SDS011;15126;42.186;24.340;2022-09-23T10:35:02;4.20;;;1.90;;
27728;SDS011;15126;42.186;24.340;2022-09-23T10:37:39;4.00;;;2.10;;
27728;SDS011;15126;42.186;24.340;2022-09-23T10:40:12;2.70;;;1.73;;
27728;SDS011;15126;42.186;24.340;2022-09-23T10:43:16;1.57;;;1.47;;
27728;SDS011;15126;42.186;24.340;2022-09-23T10:46:07;4.60;;;1.77;;
27728;SDS011;15126;42.186;24.340;2022-09-23T10:49:04;3.73;;;1.80;;
27728;SDS011;15126;42.186;24.340;2022-09-23T10:51:59;2.33;;;2.03;;
27728;SDS011;15126;42.186;24.340;2022-09-23T10:54:38;2.03;;;1.60;;
27728;SDS011;15126;42.186;24.340;2022-09-23T10:57:15;2.10;;;1.90;;
27728;SDS011;15126;42.186;24.340;2022-09-23T11:00:14;3.47;;;1.57;;
27728;SDS011;15126;42.186;24.340;2022-09-23T11:05:46;1.90;;;1.70;;
27728;SDS011;15126;42.186;24.340;2022-09-23T11:08:29;2.00;;;1.40;;
27728;SDS011;15126;42.186;24.340;2022-09-23T11:11:10;1.77;;;1.63;;
27728;SDS011;15126;42.186;24.340;2022-09-23T11:13:49;1.67;;;1.57;;
27728;SDS011;15126;42.186;24.340;2022-09-23T11:16:36;11.73;;;1.27;;
27728;SDS011;15126;42.186;24.340;2022-09-23T11:22:12;2.50;;;1.73;;
27728;SDS011;15126;42.186;24.340;2022-09-23T11:24:48;1.47;;;1.37;;
27728;SDS011;15126;42.186;24.340;2022-09-23T11:27:29;2.03;;;1.60;;
27728;SDS011;15126;42.186;24.340;2022-09-23T11:30:09;1.80;;;1.70;;
27728;SDS011;15126;42.186;24.340;2022-09-23T11:32:47;1.73;;;1.13;;
27728;SDS011;15126;42.186;24.340;2022-09-23T11:35:40;1.57;;;1.13;;
27728;SDS011;15126;42.186;24.340;2022-09-23T11:38:14;2.60;;;1.20;;
27728;SDS011;15126;42.186;24.340;2022-09-23T11:40:45;1.57;;;1.33;;
27728;SDS011;15126;42.186;24.340;2022-09-23T11:43:19;3.63;;;1.30;;
27728;SDS011;15126;42.186;24.340;2022-09-23T11:45:50;7.77;;;1.63;;
27728;SDS011;15126;42.186;24.340;2022-09-23T11:48:24;2.57;;;1.30;;
27728;SDS011;15126;42.186;24.340;2022-09-23T11:50:57;1.90;;;1.30;;
27728;SDS011;15126;42.186;24.340;2022-09-23T11:53:31;1.50;;;1.33;;
27728;SDS011;15126;42.186;24.340;2022-09-23T11:56:06;2.87;;;1.70;;
27728;SDS011;15126;42.186;24.340;2022-09-23T11:58:41;1.60;;;1.50;;
27728;SDS011;15126;42.186;24.340;2022-09-23T12:01:17;2.70;;;1.47;;
27728;SDS011;15126;42.186;24.340;2022-09-23T12:03:54;2.00;;;1.40;;
27728;SDS011;15126;42.186;24.340;2022-09-23T12:06:31;5.27;;;1.73;;
27728;SDS011;15126;42.186;24.340;2022-09-23T12:09:02;1.60;;;1.50;;
27728;SDS011;15126;42.186;24.340;2022-09-23T12:11:39;3.43;;;1.80;;
27728;SDS011;15126;42.186;24.340;2022-09-23T12:14:12;1.67;;;1.50;;
27728;SDS011;15126;42.186;24.340;2022-09-23T12:19:53;1.23;;;1.13;;
27728;SDS011;15126;42.186;24.340;2022-09-23T12:22:48;1.30;;;1.23;;
27728;SDS011;15126;42.186;24.340;2022-09-23T12:25:31;1.30;;;1.23;;
27728;SDS011;15126;42.186;24.340;2022-09-23T12:28:03;1.50;;;1.40;;
27728;SDS011;15126;42.186;24.340;2022-09-23T12:30:35;2.83;;;1.30;;
27728;SDS011;15126;42.186;24.340;2022-09-23T12:33:07;5.77;;;1.80;;
27728;SDS011;15126;42.186;24.340;2022-09-23T12:35:38;3.53;;;1.80;;
27728;SDS011;15126;42.186;24.340;2022-09-23T12:38:17;1.83;;;1.70;;
27728;SDS011;15126;42.186;24.340;2022-09-23T12:40:46;1.77;;;1.67;;
27728;SDS011;15126;42.186;24.340;2022-09-23T12:43:15;4.00;;;2.57;;
27728;SDS011;15126;42.186;24.340;2022-09-23T12:45:43;3.67;;;1.87;;
27728;SDS011;15126;42.186;24.340;2022-09-23T12:48:25;1.60;;;1.50;;
27728;SDS011;15126;42.186;24.340;2022-09-23T12:51:12;2.07;;;1.70;;
27728;SDS011;15126;42.186;24.340;2022-09-23T12:56:58;1.70;;;1.60;;
27728;SDS011;15126;42.186;24.340;2022-09-23T12:59:27;1.60;;;1.50;;
27728;SDS011;15126;42.186;24.340;2022-09-23T13:02:25;1.63;;;1.53;;
27728;SDS011;15126;42.186;24.340;2022-09-23T13:04:56;3.57;;;1.87;;
27728;SDS011;15126;42.186;24.340;2022-09-23T13:07:46;4.60;;;2.00;;
27728;SDS011;15126;42.186;24.340;2022-09-23T13:10:16;5.33;;;1.90;;
27728;SDS011;15126;42.186;24.340;2022-09-23T13:12:49;2.43;;;1.93;;
27728;SDS011;15126;42.186;24.340;2022-09-23T13:15:22;6.57;;;2.00;;
27728;SDS011;15126;42.186;24.340;2022-09-23T13:21:14;3.80;;;1.40;;
27728;SDS011;15126;42.186;24.340;2022-09-23T13:26:42;4.43;;;1.60;;
27728;SDS011;15126;42.186;24.340;2022-09-23T13:29:13;1.63;;;1.53;;
27728;SDS011;15126;42.186;24.340;2022-09-23T13:31:44;5.07;;;2.17;;
27728;SDS011;15126;42.186;24.340;2022-09-23T13:34:12;2.13;;;1.80;;
27728;SDS011;15126;42.186;24.340;2022-09-23T13:36:44;2.00;;;1.73;;
27728;SDS011;15126;42.186;24.340;2022-09-23T13:39:12;2.33;;;1.60;;
27728;SDS011;15126;42.186;24.340;2022-09-23T13:41:41;3.77;;;1.40;;
27728;SDS011;15126;42.186;24.340;2022-09-23T13:44:13;2.57;;;1.97;;
27728;SDS011;15126;42.186;24.340;2022-09-23T13:46:45;2.33;;;1.60;;
27728;SDS011;15126;42.186;24.340;2022-09-23T13:49:19;1.83;;;1.73;;
27728;SDS011;15126;42.186;24.340;2022-09-23T13:51:49;1.50;;;1.40;;
27728;SDS011;15126;42.186;24.340;2022-09-23T13:54:27;2.23;;;1.67;;
27728;SDS011;15126;42.186;24.340;2022-09-23T13:56:55;3.40;;;1.97;;
27728;SDS011;15126;42.186;24.340;2022-09-23T13:59:25;6.17;;;2.23;;
27728;SDS011;15126;42.186;24.340;2022-09-23T14:02:03;2.20;;;2.00;;
27728;SDS011;15126;42.186;24.340;2022-09-23T14:04:30;2.33;;;2.13;;
27728;SDS011;15126;42.186;24.340;2022-09-23T14:06:57;3.90;;;3.00;;
27728;SDS011;15126;42.186;24.340;2022-09-23T14:09:24;5.00;;;2.03;;
27728;SDS011;15126;42.186;24.340;2022-09-23T14:11:53;3.63;;;2.37;;
27728;SDS011;15126;42.186;24.340;2022-09-23T14:14:21;1.77;;;1.63;;
27728;SDS011;15126;42.186;24.340;2022-09-23T14:16:51;3.37;;;2.40;;
27728;SDS011;15126;42.186;24.340;2022-09-23T14:19:20;2.53;;;2.30;;
27728;SDS011;15126;42.186;24.340;2022-09-23T14:21:48;3.67;;;2.10;;
27728;SDS011;15126;42.186;24.340;2022-09-23T14:24:17;2.63;;;2.30;;
27728;SDS011;15126;42.186;24.340;2022-09-23T14:26:46;3.97;;;2.50;;
27728;SDS011;15126;42.186;24.340;2022-09-23T14:29:15;3.77;;;2.17;;
27728;SDS011;15126;42.186;24.340;2022-09-23T14:31:48;8.33;;;5.60;;
27728;SDS011;15126;42.186;24.340;2022-09-23T14:34:40;5.70;;;4.40;;
27728;SDS011;15126;42.186;24.340;2022-09-23T14:37:19;5.67;;;2.47;;
27728;SDS011;15126;42.186;24.340;2022-09-23T14:40:08;2.40;;;2.13;;
27728;SDS011;15126;42.186;24.340;2022-09-23T14:42:39;4.07;;;2.13;;
27728;SDS011;15126;42.186;24.340;2022-09-23T14:45:08;6.60;;;2.57;;
27728;SDS011;15126;42.186;24.340;2022-09-23T14:47:42;2.47;;;2.27;;
27728;SDS011;15126;42.186;24.340;2022-09-23T14:50:17;2.60;;;2.40;;
27728;SDS011;15126;42.186;24.340;2022-09-23T14:56:11;5.63;;;3.47;;
27728;SDS011;15126;42.186;24.340;2022-09-23T14:58:43;6.70;;;2.27;;
27728;SDS011;15126;42.186;24.340;2022-09-23T15:04:10;4.10;;;3.07;;
27728;SDS011;15126;42.186;24.340;2022-09-23T15:06:40;4.43;;;2.30;;
27728;SDS011;15126;42.186;24.340;2022-09-23T15:09:11;2.03;;;1.77;;
27728;SDS011;15126;42.186;24.340;2022-09-23T15:11:45;2.13;;;1.97;;
27728;SDS011;15126;42.186;24.340;2022-09-23T15:14:12;4.17;;;2.10;;
27728;SDS011;15126;42.186;24.340;2022-09-23T15:16:40;6.03;;;3.10;;
27728;SDS011;15126;42.186;24.340;2022-09-23T15:19:13;4.23;;;3.03;;
27728;SDS011;15126;42.186;24.340;2022-09-23T15:21:45;6.60;;;2.97;;
27728;SDS011;15126;42.186;24.340;2022-09-23T15:27:08;2.97;;;2.70;;
27728;SDS011;15126;42.186;24.340;2022-09-23T15:29:35;3.37;;;3.07;;
27728;SDS011;15126;42.186;24.340;2022-09-23T15:32:02;6.43;;;2.77;;
27728;SDS011;15126;42.186;24.340;2022-09-23T15:34:34;6.23;;;2.90;;